Home

Weather

KSLC Current Conditions

KSLC 241454Z 28004KT 10SM FEW045 10/02 A3030 RMK AO2 SLP241 T01000022 51015

KSLC Aviation Forecast

KSLC 232030Z 2321/2424 33012G20KT P6SM SCT080 BKN120 FM240300 14005KT P6SM SCT100 SCT150 FM241700 34007KT P6SM SCT120


50° F
Clear
Clear

Clear
Tuesday
Clear
High 67°/Low 44°
0%
Clear
Wednesday
Clear
High 74°/Low 49°
0%
Clear
Thursday
Clear
High 76°/Low 50°
0%
Clear
Friday
Clear
High 83°/Low 59°
0%
Clear
Saturday
Clear
High 79°/Low 50°
0%
Clear
Sunday
Clear
High 69°/Low 50°
20%